createdAt,value
2023-01-17T00:00:44.092Z,0
2023-01-17T00:01:45.094Z,0
2023-01-17T00:02:46.171Z,0.24
2023-01-17T00:03:47.268Z,0.14
2023-01-17T00:04:48.454Z,0
2023-01-17T00:05:50.194Z,0
2023-01-17T00:06:51.008Z,0.12
2023-01-17T00:07:51.961Z,0.19
2023-01-17T00:08:53.012Z,0.42
2023-01-17T00:09:53.963Z,0.33
2023-01-17T00:10:55.000Z,0
2023-01-17T00:11:55.970Z,0
2023-01-17T00:12:57.103Z,0.2
2023-01-17T00:13:58.144Z,0.26
2023-01-17T00:14:59.197Z,0.19
2023-01-17T00:16:00.233Z,0.51
2023-01-17T00:17:01.254Z,0.21
2023-01-17T00:18:02.235Z,0.23
2023-01-17T00:19:03.153Z,0.46
2023-01-17T00:20:04.118Z,0.16
2023-01-17T00:21:05.156Z,0
2023-01-17T00:22:06.134Z,0
2023-01-17T00:23:07.111Z,0
2023-01-17T00:24:10.913Z,0
2023-01-17T00:25:12.096Z,0.32
2023-01-17T00:26:13.143Z,0
2023-01-17T00:27:14.153Z,1.07
2023-01-17T00:28:15.214Z,0.16
2023-01-17T00:29:16.179Z,0.31
2023-01-17T00:30:17.173Z,0.33
2023-01-17T00:31:18.215Z,0.06
2023-01-17T00:32:19.139Z,0
2023-01-17T00:33:20.075Z,0.32
2023-01-17T00:34:21.087Z,0.38
2023-01-17T00:35:22.064Z,0
2023-01-17T00:36:23.034Z,0.56
2023-01-17T00:37:23.971Z,0.13
2023-01-17T00:38:25.064Z,0.09
2023-01-17T00:39:26.013Z,0.55
2023-01-17T00:40:27.035Z,0
2023-01-17T00:41:28.161Z,0.1
2023-01-17T00:42:29.173Z,0.18
2023-01-17T00:43:30.173Z,0.13
2023-01-17T00:44:31.181Z,0.85
2023-01-17T00:45:32.541Z,0.75
2023-01-17T00:46:34.421Z,0.45
2023-01-17T00:47:35.224Z,0.34
2023-01-17T00:48:36.153Z,0
2023-01-17T00:49:37.162Z,0
2023-01-17T00:50:37.961Z,0
2023-01-17T00:51:39.097Z,0
2023-01-17T00:52:40.014Z,0
2023-01-17T00:53:41.034Z,0
2023-01-17T00:54:42.277Z,0.25
2023-01-17T00:55:43.094Z,0.39
2023-01-17T00:56:44.241Z,0.32
2023-01-17T00:57:45.168Z,0
2023-01-17T00:58:46.197Z,0.62
2023-01-17T00:59:47.001Z,0
2023-01-17T01:00:48.434Z,0.22
2023-01-17T01:01:50.332Z,0.14
2023-01-17T01:02:51.225Z,0.17
2023-01-17T01:03:52.177Z,0.5
2023-01-17T01:04:53.133Z,0.47
2023-01-17T01:05:54.095Z,0
2023-01-17T01:06:55.113Z,0
2023-01-17T01:07:56.053Z,0
2023-01-17T01:08:57.113Z,0.13
2023-01-17T01:09:58.158Z,0
2023-01-17T01:10:59.192Z,0.11
2023-01-17T01:12:00.173Z,0.51
2023-01-17T01:13:01.175Z,0.55
2023-01-17T01:14:02.138Z,0.24
2023-01-17T01:15:03.211Z,0.12
2023-01-17T01:16:04.247Z,0.32
2023-01-17T01:17:05.159Z,0
2023-01-17T01:18:06.210Z,0.12
2023-01-17T01:19:07.133Z,0.84
2023-01-17T01:20:08.076Z,0.18
2023-01-17T01:21:09.094Z,0.48
2023-01-17T01:22:10.061Z,0.88
2023-01-17T01:23:11.036Z,0
2023-01-17T01:24:12.134Z,1.06
2023-01-17T01:25:13.182Z,0.73
2023-01-17T01:26:14.233Z,0.19
2023-01-17T01:27:15.196Z,0.38
2023-01-17T01:28:16.154Z,0.62
2023-01-17T01:29:17.171Z,0.9
2023-01-17T01:30:18.184Z,0.72
2023-01-17T01:31:19.291Z,0.1
2023-01-17T01:32:20.217Z,0.41
2023-01-17T01:33:21.288Z,0.66
2023-01-17T01:34:22.293Z,0.31
2023-01-17T01:35:23.172Z,0.34
2023-01-17T01:36:24.155Z,1.17
2023-01-17T01:37:25.194Z,0.09
2023-01-17T01:38:26.178Z,0.36
2023-01-17T01:39:27.036Z,0.79
2023-01-17T01:40:28.193Z,0.57
2023-01-17T01:41:29.195Z,0.55
2023-01-17T01:42:30.243Z,0.05
2023-01-17T01:43:31.213Z,0.51
2023-01-17T01:44:32.154Z,0.4
2023-01-17T01:45:33.283Z,1.44
2023-01-17T01:46:34.257Z,0.11
2023-01-17T01:47:35.207Z,0.18
2023-01-17T01:48:36.215Z,0.21
2023-01-17T01:49:37.200Z,0.44
2023-01-17T01:50:38.253Z,0
2023-01-17T01:51:39.116Z,0.34
2023-01-17T01:52:40.094Z,0.6
2023-01-17T01:53:41.135Z,0.55
2023-01-17T01:54:42.126Z,0.62
2023-01-17T01:55:43.145Z,1.02
2023-01-17T01:56:44.297Z,0.99
2023-01-17T01:57:45.135Z,0.3
2023-01-17T01:58:46.218Z,0.54
2023-01-17T01:59:47.237Z,0.19
2023-01-17T02:00:48.494Z,0.82
2023-01-17T02:01:49.377Z,0.64
2023-01-17T02:02:50.060Z,0.35
2023-01-17T02:07:19.253Z,0.42
2023-01-17T02:08:20.118Z,0.36
2023-01-17T02:09:21.172Z,0.63
2023-01-17T02:10:22.245Z,0.54
2023-01-17T02:11:23.108Z,0.43
2023-01-17T02:12:24.115Z,0.29
2023-01-17T02:13:24.999Z,0.39
2023-01-17T02:14:26.074Z,1.7
2023-01-17T02:15:27.153Z,0.12
2023-01-17T02:16:28.300Z,0.3
2023-01-17T02:17:29.297Z,0.4
2023-01-17T02:18:30.213Z,0.47
2023-01-17T02:19:31.176Z,1.76
2023-01-17T02:20:32.298Z,0.16
2023-01-17T02:21:33.252Z,0.45
2023-01-17T02:22:34.215Z,0.76
2023-01-17T02:23:35.174Z,1.36
2023-01-17T02:24:36.201Z,0.27
2023-01-17T02:25:37.206Z,0.32
2023-01-17T02:26:38.214Z,0.32
2023-01-17T02:27:39.187Z,0.52
2023-01-17T02:28:40.154Z,0.73
2023-01-17T02:29:41.254Z,0.72
2023-01-17T02:30:42.254Z,0.27
2023-01-17T02:31:43.310Z,0.48
2023-01-17T02:32:44.453Z,0.62
2023-01-17T02:33:46.153Z,0.68
2023-01-17T02:34:47.258Z,0.52
2023-01-17T02:35:48.604Z,1.57
2023-01-17T02:36:50.282Z,1.07
2023-01-17T02:37:51.258Z,0.77
2023-01-17T02:38:52.294Z,1.02
2023-01-17T02:39:53.233Z,1.37
2023-01-17T02:40:54.254Z,0.74
2023-01-17T02:41:55.259Z,0.9
2023-01-17T02:42:56.206Z,0.89
2023-01-17T02:43:57.250Z,1.09
2023-01-17T02:44:58.274Z,1.25
2023-01-17T02:45:59.293Z,0.52
2023-01-17T02:47:00.229Z,0.59
2023-01-17T02:48:01.194Z,0.61
2023-01-17T02:49:02.355Z,1.79
2023-01-17T02:50:03.293Z,1.63
2023-01-17T02:51:04.204Z,0.73
2023-01-17T02:52:05.253Z,1.32
2023-01-17T02:53:06.233Z,0.61
2023-01-17T02:54:07.213Z,1.44
2023-01-17T02:55:08.024Z,1.21
2023-01-17T02:56:09.100Z,1.27
2023-01-17T02:57:10.052Z,1.08
2023-01-17T02:58:11.104Z,1.11
2023-01-17T02:59:12.083Z,0.69
2023-01-17T03:00:13.031Z,0.83
2023-01-17T03:01:14.315Z,1.82
2023-01-17T03:02:15.316Z,0.8
2023-01-17T03:03:16.235Z,0.32
2023-01-17T03:04:17.293Z,0.56
2023-01-17T03:05:20.293Z,0.53
2023-01-17T03:06:19.272Z,0.59
2023-01-17T03:07:20.293Z,0.21
2023-01-17T03:08:21.238Z,0.22
2023-01-17T03:09:22.173Z,1.01
2023-01-17T03:10:23.151Z,0.96
2023-01-17T03:11:24.263Z,0.39
2023-01-17T03:12:25.186Z,0.48
2023-01-17T03:13:26.113Z,0.57
2023-01-17T03:14:27.126Z,0.38
2023-01-17T03:15:28.066Z,0.63
2023-01-17T03:16:29.138Z,0.19
2023-01-17T03:17:30.242Z,0.15
2023-01-17T03:18:31.094Z,0.71
2023-01-17T03:19:32.061Z,1.06
2023-01-17T03:20:33.121Z,0.59
2023-01-17T03:21:34.103Z,0.4
2023-01-17T03:22:35.124Z,0.29
2023-01-17T03:23:36.096Z,0
2023-01-17T03:24:37.047Z,0
2023-01-17T03:25:38.297Z,0.09
2023-01-17T03:26:39.200Z,0.85
2023-01-17T03:27:40.259Z,0
2023-01-17T03:28:41.235Z,0.15
2023-01-17T03:29:42.103Z,0.6
2023-01-17T03:30:43.270Z,0.21
2023-01-17T03:31:44.194Z,0.2
2023-01-17T03:32:45.323Z,0.51
2023-01-17T03:33:46.321Z,0
2023-01-17T03:34:47.153Z,0
2023-01-17T03:35:48.658Z,0
2023-01-17T03:36:50.173Z,0
2023-01-17T03:37:51.134Z,0
2023-01-17T03:38:52.115Z,0
2023-01-17T03:39:53.134Z,0.1
2023-01-17T03:40:54.173Z,1.49
2023-01-17T03:41:55.191Z,0.51
2023-01-17T03:42:56.161Z,0
2023-01-17T03:43:57.095Z,0
2023-01-17T03:44:58.193Z,0.27
2023-01-17T03:45:59.316Z,0.11
2023-01-17T03:47:00.335Z,0.21
2023-01-17T03:48:01.322Z,0
2023-01-17T03:49:02.093Z,0
2023-01-17T03:50:03.120Z,0.08
2023-01-17T03:51:04.137Z,0
2023-01-17T03:52:05.134Z,0.27
2023-01-17T03:53:06.272Z,0.18
2023-01-17T03:54:07.233Z,0
2023-01-17T03:55:08.296Z,0
2023-01-17T03:56:09.353Z,0
2023-01-17T03:57:10.121Z,0.15
2023-01-17T03:58:11.197Z,0
2023-01-17T03:59:13.220Z,1
2023-01-17T04:00:13.146Z,0
2023-01-17T04:01:14.438Z,0
2023-01-17T04:02:15.344Z,0.15
2023-01-17T04:03:16.238Z,0.61
2023-01-17T04:04:17.352Z,0.52
2023-01-17T04:05:18.273Z,0.5
2023-01-17T04:06:19.285Z,0.66
2023-01-17T04:07:20.293Z,0.81
2023-01-17T04:08:21.275Z,0.26
2023-01-17T04:09:25.255Z,0
2023-01-17T04:10:26.139Z,0
2023-01-17T04:11:27.121Z,0
2023-01-17T04:12:28.194Z,0
2023-01-17T04:13:29.277Z,0.28
2023-01-17T04:14:30.298Z,0
2023-01-17T04:15:31.172Z,0
2023-01-17T04:16:32.303Z,0
2023-01-17T04:17:33.110Z,0
2023-01-17T04:18:34.320Z,0
2023-01-17T04:19:35.283Z,0
2023-01-17T04:20:36.272Z,0
2023-01-17T04:21:37.156Z,0.32
2023-01-17T04:22:38.134Z,0.23
2023-01-17T04:23:39.213Z,0.29
2023-01-17T04:24:40.112Z,0.67
2023-01-17T04:25:41.297Z,0.53
2023-01-17T04:26:42.141Z,0
2023-01-17T04:27:43.214Z,0.65
2023-01-17T04:28:44.281Z,0.13
2023-01-17T04:29:46.712Z,0
2023-01-17T04:30:46.370Z,0.38
2023-01-17T04:31:47.352Z,0
2023-01-17T04:32:48.616Z,0
2023-01-17T04:33:50.181Z,0
2023-01-17T04:34:51.201Z,0
2023-01-17T04:35:52.234Z,0.13
2023-01-17T04:36:53.155Z,0.26
2023-01-17T04:37:54.133Z,0
2023-01-17T04:38:55.181Z,0.34
2023-01-17T04:39:56.152Z,0.34
2023-01-17T04:40:57.225Z,0.43
2023-01-17T04:41:58.226Z,0
2023-01-17T04:42:59.278Z,0
2023-01-17T04:44:00.301Z,0
2023-01-17T04:45:01.372Z,0
2023-01-17T04:46:02.310Z,0
2023-01-17T04:47:03.296Z,0
2023-01-17T04:48:04.385Z,0
2023-01-17T04:49:05.301Z,0.27
2023-01-17T04:50:06.253Z,0
2023-01-17T04:51:07.284Z,0
2023-01-17T04:52:08.193Z,0
2023-01-17T04:53:09.222Z,0
2023-01-17T04:54:10.167Z,0
2023-01-17T04:55:11.213Z,0
2023-01-17T04:56:12.193Z,0.18
2023-01-17T04:57:13.374Z,0
2023-01-17T04:58:14.294Z,0
2023-01-17T04:59:15.274Z,0
2023-01-17T05:00:16.265Z,0
2023-01-17T05:01:17.399Z,0.43
2023-01-17T05:02:18.288Z,0
2023-01-17T05:03:19.355Z,0
2023-01-17T05:04:20.340Z,1.19
2023-01-17T05:05:21.196Z,0.62
2023-01-17T05:06:22.174Z,0.07
2023-01-17T05:07:23.201Z,0.26
2023-01-17T05:08:24.191Z,0.11
2023-01-17T05:09:25.194Z,1.62
2023-01-17T05:10:26.197Z,0.43
2023-01-17T05:11:27.193Z,0.55
2023-01-17T05:12:28.132Z,0.15
2023-01-17T05:13:29.179Z,0.19
2023-01-17T05:14:30.197Z,1.03
2023-01-17T05:15:31.169Z,0.39
2023-01-17T05:16:32.152Z,0
2023-01-17T05:17:33.212Z,0.39
2023-01-17T05:18:34.132Z,0
2023-01-17T05:19:35.140Z,0.38
2023-01-17T05:20:36.209Z,0.89
2023-01-17T05:21:37.169Z,0
2023-01-17T05:22:38.176Z,0
2023-01-17T05:23:39.172Z,0
2023-01-17T05:24:40.258Z,0
2023-01-17T05:25:41.378Z,0
2023-01-17T05:26:42.132Z,0
2023-01-17T05:27:43.218Z,0
2023-01-17T05:28:44.277Z,0
2023-01-17T05:29:45.361Z,0.43
2023-01-17T05:30:46.356Z,0
2023-01-17T05:31:47.315Z,0
2023-01-17T05:32:48.692Z,0
2023-01-17T05:33:50.253Z,0
2023-01-17T05:34:51.423Z,0
2023-01-17T05:35:52.194Z,0
2023-01-17T05:36:53.093Z,0
2023-01-17T05:37:54.197Z,0
2023-01-17T05:38:55.193Z,0
2023-01-17T05:39:56.201Z,0
2023-01-17T05:40:57.163Z,0
2023-01-17T05:41:58.113Z,0
2023-01-17T05:42:59.125Z,0
2023-01-17T05:44:00.183Z,0
2023-01-17T05:45:01.258Z,0
2023-01-17T05:46:02.198Z,0
2023-01-17T05:47:03.110Z,0
2023-01-17T05:48:04.167Z,0
2023-01-17T05:49:05.215Z,0.43
2023-01-17T05:50:06.287Z,0
2023-01-17T05:51:07.172Z,0.48
2023-01-17T05:52:08.234Z,0
2023-01-17T05:53:09.238Z,0
2023-01-17T05:54:10.148Z,0.74
2023-01-17T05:55:11.176Z,0.42
2023-01-17T05:56:12.155Z,0.19
2023-01-17T05:57:13.257Z,0.5
2023-01-17T05:58:14.393Z,0.49
2023-01-17T05:59:16.193Z,0.47
2023-01-17T06:00:16.352Z,0
2023-01-17T06:01:17.356Z,0
2023-01-17T06:02:18.150Z,0.54
2023-01-17T06:03:19.272Z,0.17
2023-01-17T06:04:20.185Z,1.41
2023-01-17T06:05:21.293Z,0.17
2023-01-17T06:06:22.241Z,0.64
2023-01-17T06:07:23.216Z,0.66
2023-01-17T06:08:24.567Z,0
2023-01-17T06:09:25.233Z,0.14
2023-01-17T06:10:26.134Z,0.7
2023-01-17T06:11:27.173Z,0.59
2023-01-17T06:12:28.175Z,0.09
2023-01-17T06:13:29.389Z,0.34
2023-01-17T06:14:30.312Z,0.54
2023-01-17T06:15:31.237Z,1.28
2023-01-17T06:16:32.214Z,0.53
2023-01-17T06:17:33.173Z,0.58
2023-01-17T06:18:34.158Z,0.47
2023-01-17T06:19:35.257Z,0.42
2023-01-17T06:20:36.262Z,0.22
2023-01-17T06:21:37.290Z,0.53
2023-01-17T06:22:38.201Z,0.94
2023-01-17T06:23:39.132Z,1.08
2023-01-17T06:24:40.110Z,0.77
2023-01-17T06:25:41.199Z,0.98
2023-01-17T06:26:42.241Z,0.37
2023-01-17T06:27:43.147Z,0.61
2023-01-17T06:28:44.332Z,0.23
2023-01-17T06:29:45.212Z,0.77
2023-01-17T06:30:46.253Z,0.33
2023-01-17T06:31:47.131Z,0.45
2023-01-17T06:32:48.711Z,0.1
2023-01-17T06:33:50.142Z,0.12
2023-01-17T06:34:51.131Z,0.99
2023-01-17T06:35:52.257Z,0.39
2023-01-17T06:36:53.142Z,0.56
2023-01-17T06:37:55.155Z,0.26
2023-01-17T06:38:56.262Z,0.44
2023-01-17T06:39:57.308Z,0.2
2023-01-17T06:40:58.298Z,0.22
2023-01-17T06:41:59.229Z,0.11
2023-01-17T06:43:00.280Z,0.44
2023-01-17T06:44:01.151Z,0.82
2023-01-17T06:45:02.257Z,0.1
2023-01-17T06:46:03.229Z,0.29
2023-01-17T06:47:04.118Z,0.25
2023-01-17T06:48:05.299Z,0.2
2023-01-17T06:49:06.319Z,0.25
2023-01-17T06:50:07.259Z,0.29
2023-01-17T06:51:08.274Z,0.13
2023-01-17T06:52:09.200Z,0.25
2023-01-17T06:53:10.134Z,0.11
2023-01-17T06:54:11.179Z,0.1
2023-01-17T06:55:12.251Z,0
2023-01-17T06:56:13.261Z,0.47
2023-01-17T06:57:14.301Z,0
2023-01-17T06:58:15.238Z,0
2023-01-17T06:59:16.286Z,0.49
2023-01-17T07:00:17.279Z,0.35
2023-01-17T07:01:19.404Z,0
2023-01-17T07:02:20.365Z,0
2023-01-17T07:03:21.320Z,0
2023-01-17T07:04:22.323Z,0
2023-01-17T07:05:23.298Z,0
2023-01-17T07:06:24.241Z,0
2023-01-17T07:07:25.223Z,0
2023-01-17T07:08:26.371Z,0
2023-01-17T07:09:27.276Z,0
2023-01-17T07:10:28.239Z,0.35
2023-01-17T07:11:29.292Z,0.24
2023-01-17T07:12:30.280Z,0
2023-01-17T07:13:31.422Z,0
2023-01-17T07:14:33.191Z,0
2023-01-17T07:15:34.393Z,0
2023-01-17T07:16:35.239Z,0
2023-01-17T07:17:36.415Z,0
2023-01-17T07:18:37.181Z,0
2023-01-17T07:19:38.182Z,0
2023-01-17T07:20:39.183Z,0.58
2023-01-17T07:21:40.224Z,0.43
2023-01-17T07:22:41.183Z,0.23
2023-01-17T07:23:42.119Z,0
2023-01-17T07:24:43.181Z,0
2023-01-17T07:25:44.267Z,0
2023-01-17T07:26:45.323Z,0.63
2023-01-17T07:27:46.319Z,0
2023-01-17T07:28:47.173Z,0
2023-01-17T07:29:48.701Z,0
2023-01-17T07:30:50.364Z,0
2023-01-17T07:31:51.387Z,0
2023-01-17T07:32:52.363Z,0
2023-01-17T07:33:53.313Z,0.25
2023-01-17T07:34:54.333Z,0
2023-01-17T07:35:55.332Z,0.15
2023-01-17T07:36:56.242Z,0.1
2023-01-17T07:37:57.231Z,0.37
2023-01-17T07:38:58.273Z,0
2023-01-17T07:39:59.291Z,0
2023-01-17T07:41:00.544Z,0
2023-01-17T07:42:02.209Z,0.37
2023-01-17T07:43:03.171Z,0.37
2023-01-17T07:44:04.270Z,0.25
2023-01-17T07:45:05.170Z,0.41
2023-01-17T07:46:06.366Z,0.08
2023-01-17T07:47:07.466Z,0.27
2023-01-17T07:48:08.291Z,0.29
2023-01-17T07:49:09.329Z,0.34
2023-01-17T07:50:10.395Z,0.45
2023-01-17T07:51:11.319Z,0.22
2023-01-17T07:52:12.223Z,0.63
2023-01-17T07:53:13.173Z,0.22
2023-01-17T07:54:14.391Z,0.57
2023-01-17T07:55:15.691Z,0.41
2023-01-17T07:56:17.951Z,0.13
2023-01-17T07:57:19.372Z,0
2023-01-17T07:58:20.373Z,0.58
2023-01-17T07:59:21.277Z,0.46
2023-01-17T08:00:22.374Z,0.28
2023-01-17T08:01:24.295Z,0.3
2023-01-17T08:02:25.335Z,0.44
2023-01-17T08:03:26.161Z,0.6
2023-01-17T08:04:27.256Z,0
2023-01-17T08:05:28.308Z,0.14
2023-01-17T08:06:29.312Z,0.19
2023-01-17T08:07:30.384Z,0
2023-01-17T08:08:31.331Z,0.22
2023-01-17T08:09:32.538Z,0.47
2023-01-17T08:10:33.378Z,0
2023-01-17T08:11:34.371Z,0.2
2023-01-17T08:12:35.294Z,0.61
2023-01-17T08:13:36.299Z,0.35
2023-01-17T08:14:37.239Z,0
2023-01-17T08:15:38.206Z,0
2023-01-17T08:16:39.293Z,0
2023-01-17T08:17:40.230Z,0
2023-01-17T08:18:41.320Z,0.13
2023-01-17T08:19:42.291Z,0.33
2023-01-17T08:20:43.263Z,0.95
2023-01-17T08:21:44.311Z,0.08
2023-01-17T08:22:45.395Z,0
2023-01-17T08:23:46.433Z,0
2023-01-17T08:24:47.291Z,0
2023-01-17T08:25:48.833Z,0
2023-01-17T08:26:50.452Z,0
2023-01-17T08:27:51.510Z,0.12
2023-01-17T08:28:52.248Z,0.46
2023-01-17T08:29:53.231Z,0
2023-01-17T08:30:54.257Z,0
2023-01-17T08:31:55.295Z,0
2023-01-17T08:32:56.263Z,0
2023-01-17T08:33:57.235Z,0.28
2023-01-17T08:34:58.224Z,0
2023-01-17T08:35:59.354Z,0
2023-01-17T08:37:00.259Z,0
2023-01-17T08:38:01.510Z,0.11
2023-01-17T08:39:02.270Z,0.2
2023-01-17T08:40:03.245Z,0
2023-01-17T08:41:04.189Z,0.27
2023-01-17T08:42:05.254Z,0.32
2023-01-17T08:43:06.271Z,0.27
2023-01-17T08:44:07.267Z,0.88
2023-01-17T08:45:08.283Z,0.38
2023-01-17T08:46:09.408Z,0.61
2023-01-17T08:47:10.332Z,0.93
2023-01-17T08:48:11.434Z,0.62
2023-01-17T08:49:12.386Z,1.2
2023-01-17T08:50:13.362Z,0.81
2023-01-17T08:51:14.396Z,0.82
2023-01-17T08:52:15.408Z,0.41
2023-01-17T08:53:16.358Z,0.22
2023-01-17T08:54:17.426Z,1.18
2023-01-17T08:55:18.349Z,0.94
2023-01-17T08:56:19.352Z,0.71
2023-01-17T08:57:20.412Z,0.71
2023-01-17T08:58:21.272Z,0.54
2023-01-17T08:59:22.230Z,1.39
2023-01-17T09:00:23.304Z,0.82
2023-01-17T09:01:24.406Z,1.61
2023-01-17T09:02:25.250Z,0.56
2023-01-17T09:03:26.271Z,0.89
2023-01-17T09:04:27.387Z,0.47
2023-01-17T09:05:28.293Z,0.52
2023-01-17T09:06:29.242Z,0.27
2023-01-17T09:07:30.371Z,0.54
2023-01-17T09:08:31.238Z,0.3
2023-01-17T09:09:32.272Z,0.21
2023-01-17T09:10:33.255Z,0.59
2023-01-17T09:11:34.205Z,0.6
2023-01-17T09:12:35.292Z,0.71
2023-01-17T09:13:36.814Z,0.88
2023-01-17T09:14:38.356Z,0.44
2023-01-17T09:15:39.363Z,0.08
2023-01-17T09:16:40.459Z,1.03
2023-01-17T09:17:41.551Z,0.44
2023-01-17T09:18:42.330Z,0.63
2023-01-17T09:19:43.264Z,0.46
2023-01-17T09:20:44.253Z,0.57
2023-01-17T09:21:45.431Z,0.95
2023-01-17T09:22:46.298Z,0.21
2023-01-17T09:23:47.284Z,0.53
2023-01-17T09:24:48.910Z,0.49
2023-01-17T09:25:50.423Z,0.88
2023-01-17T09:26:51.288Z,0.44
2023-01-17T09:27:52.291Z,0.75
2023-01-17T09:28:53.297Z,0.61
2023-01-17T09:29:54.391Z,1.09
2023-01-17T09:30:55.283Z,0.75
2023-01-17T09:31:56.432Z,0.5
2023-01-17T09:32:57.338Z,0.38
2023-01-17T09:33:58.251Z,0.78
2023-01-17T09:34:59.258Z,0.52
2023-01-17T09:36:00.395Z,1.18
2023-01-17T09:37:01.612Z,0.53
2023-01-17T09:38:02.271Z,0.16
2023-01-17T09:39:03.347Z,0.74
2023-01-17T09:40:04.331Z,0.53
2023-01-17T09:41:05.412Z,0.83
2023-01-17T09:42:06.481Z,0.09
2023-01-17T09:43:07.431Z,0.85
2023-01-17T09:44:08.276Z,0.74
2023-01-17T09:45:09.316Z,1.18
2023-01-17T09:46:10.397Z,1.09
2023-01-17T09:47:11.485Z,1.59
2023-01-17T09:48:12.292Z,1.8
2023-01-17T09:49:13.313Z,0.79
2023-01-17T09:50:14.255Z,0.66
2023-01-17T09:51:15.794Z,1.23
2023-01-17T09:52:17.474Z,1.78
2023-01-17T09:53:18.252Z,1.7
2023-01-17T09:54:19.396Z,1.29
2023-01-17T09:55:20.431Z,1.01
2023-01-17T09:56:21.431Z,1.71
2023-01-17T09:57:22.440Z,1.46
2023-01-17T09:58:23.531Z,2.16
2023-01-17T09:59:32.554Z,1.97
2023-01-17T10:00:25.411Z,1.25
2023-01-17T10:01:26.529Z,1.56
2023-01-17T10:02:27.560Z,0.8
2023-01-17T10:03:28.425Z,0.62
2023-01-17T10:04:29.301Z,0.77
2023-01-17T10:05:30.366Z,1.17
2023-01-17T10:06:31.411Z,1.22
2023-01-17T10:07:32.376Z,0.94
2023-01-17T10:08:33.296Z,1.79
2023-01-17T10:09:34.400Z,1.78
2023-01-17T10:10:35.319Z,1.42
2023-01-17T10:11:36.296Z,1.54
2023-01-17T10:12:37.293Z,1.62
2023-01-17T10:13:38.351Z,2.25
2023-01-17T10:14:39.237Z,1.46
2023-01-17T10:15:40.692Z,1.17
2023-01-17T10:16:41.455Z,1.25
2023-01-17T10:17:42.253Z,1.45
2023-01-17T10:18:43.275Z,1.71
2023-01-17T10:19:44.262Z,1.35
2023-01-17T10:20:45.513Z,1.15
2023-01-17T10:21:46.493Z,1.25
2023-01-17T10:22:47.410Z,1.3
2023-01-17T10:23:48.292Z,1.18
2023-01-17T10:24:49.289Z,0.83
2023-01-17T10:25:50.472Z,0.72
2023-01-17T10:26:51.558Z,1.02
2023-01-17T10:27:52.491Z,1.97
2023-01-17T10:28:53.591Z,1.45
2023-01-17T10:29:54.395Z,1.45
2023-01-17T10:30:55.401Z,1.84
2023-01-17T10:31:56.280Z,1.56
2023-01-17T10:32:57.360Z,1.24
2023-01-17T10:33:58.377Z,1.73
2023-01-17T10:34:59.333Z,1.45
2023-01-17T10:36:00.526Z,1.06
2023-01-17T10:37:01.516Z,0.83
2023-01-17T10:38:02.356Z,1.86
2023-01-17T10:39:03.385Z,1.51
2023-01-17T10:40:04.334Z,0.43
2023-01-17T10:41:05.316Z,1.03
2023-01-17T10:42:06.336Z,0.79
2023-01-17T10:43:07.311Z,1.73
2023-01-17T10:44:08.315Z,2.01
2023-01-17T10:45:09.331Z,1.75
2023-01-17T10:46:10.366Z,1.8
2023-01-17T10:47:11.327Z,1.69
2023-01-17T10:48:12.356Z,1.08
2023-01-17T10:49:13.321Z,1.15
2023-01-17T10:50:14.434Z,1.57
2023-01-17T10:51:15.283Z,2.31
2023-01-17T10:52:16.528Z,1.76
2023-01-17T10:53:17.532Z,1.63
2023-01-17T10:54:18.433Z,1.74
2023-01-17T10:55:19.454Z,0.77
2023-01-17T10:56:20.493Z,0.69
2023-01-17T10:57:21.553Z,1.13
2023-01-17T10:58:22.531Z,1.03
2023-01-17T10:59:23.442Z,0.82
2023-01-17T11:00:24.420Z,0.88
2023-01-17T11:01:25.533Z,1.22
2023-01-17T11:02:26.501Z,1.14
2023-01-17T11:03:27.331Z,1.67
2023-01-17T11:04:28.416Z,1.98
2023-01-17T11:05:29.279Z,1.6
2023-01-17T11:06:30.331Z,1.38
2023-01-17T11:07:31.367Z,1.11
2023-01-17T11:08:32.370Z,0.55
2023-01-17T11:09:33.373Z,1.3
2023-01-17T11:10:34.323Z,2.09
2023-01-17T11:11:35.378Z,1.21
2023-01-17T11:12:36.331Z,0.52
2023-01-17T11:13:37.346Z,1.74
2023-01-17T11:14:38.333Z,1.03
2023-01-17T11:15:39.420Z,0.92
2023-01-17T11:16:40.311Z,0.96
2023-01-17T11:17:41.355Z,1.02
2023-01-17T11:18:42.435Z,1.04
2023-01-17T11:19:43.409Z,0.9
2023-01-17T11:20:44.350Z,0.81
2023-01-17T11:21:45.836Z,0.63
2023-01-17T11:22:46.516Z,0.92
2023-01-17T11:23:47.311Z,1.07
2023-01-17T11:24:48.371Z,1.25
2023-01-17T11:25:49.339Z,1.18
2023-01-17T11:26:50.331Z,0.93
2023-01-17T11:27:51.335Z,1.72
2023-01-17T11:28:52.355Z,1.47
2023-01-17T11:29:53.331Z,1.52
2023-01-17T11:30:54.405Z,1.79
2023-01-17T11:31:55.368Z,1.05
2023-01-17T11:32:56.314Z,0.59
2023-01-17T11:33:57.419Z,0.62
2023-01-17T11:34:58.352Z,0.93
2023-01-17T11:35:59.335Z,1.23
2023-01-17T11:37:00.357Z,0.94
2023-01-17T11:38:01.331Z,0.68
2023-01-17T11:39:02.610Z,0.31
2023-01-17T11:40:03.390Z,0.73
2023-01-17T11:41:04.303Z,0.29
2023-01-17T11:42:05.318Z,1.06
2023-01-17T11:43:06.342Z,0.6
2023-01-17T11:44:07.391Z,0.64
2023-01-17T11:45:08.274Z,0.76
2023-01-17T11:46:09.524Z,0.5
2023-01-17T11:47:10.377Z,0.47
2023-01-17T11:48:11.337Z,1.33
2023-01-17T11:49:12.391Z,1.39
2023-01-17T11:50:13.332Z,0.97
2023-01-17T11:51:14.388Z,0.74
2023-01-17T11:52:15.383Z,0.85
2023-01-17T11:53:16.357Z,1.33
2023-01-17T11:54:17.372Z,1.71
2023-01-17T11:55:18.302Z,0.96
2023-01-17T11:56:19.389Z,1.45
2023-01-17T11:57:20.294Z,0.97
2023-01-17T11:58:21.391Z,0.61
2023-01-17T11:59:22.471Z,0.95
2023-01-17T12:00:23.337Z,0.74
2023-01-17T12:01:24.385Z,1.31
2023-01-17T12:02:25.335Z,1.01
2023-01-17T12:03:26.404Z,1.13
2023-01-17T12:04:27.392Z,0.55
2023-01-17T12:05:28.359Z,0.48
2023-01-17T12:06:29.311Z,0.69
2023-01-17T12:07:30.335Z,1.44
2023-01-17T12:08:31.347Z,1.2
2023-01-17T12:09:32.793Z,1.82
2023-01-17T12:10:34.543Z,0.52
2023-01-17T12:11:35.432Z,0.94
2023-01-17T12:12:36.492Z,1.22
2023-01-17T12:13:37.551Z,1.65
2023-01-17T12:14:38.451Z,1.48
2023-01-17T12:15:39.404Z,1.49
2023-01-17T12:16:40.315Z,0.92
2023-01-17T12:17:41.461Z,0.82
2023-01-17T12:18:42.490Z,0.71
2023-01-17T12:19:43.573Z,0.79
2023-01-17T12:20:44.446Z,0.96
2023-01-17T12:21:45.530Z,1.41
2023-01-17T12:22:46.280Z,1.15
2023-01-17T12:23:47.322Z,1.38
2023-01-17T12:24:48.424Z,1.56
2023-01-17T12:25:49.332Z,0.99
2023-01-17T12:26:50.562Z,0.65
2023-01-17T12:27:51.530Z,1.13
2023-01-17T12:28:52.564Z,1.12
2023-01-17T12:29:53.351Z,1.07
2023-01-17T12:30:54.437Z,0.86
2023-01-17T12:31:55.391Z,0.52
2023-01-17T12:32:56.359Z,1.06
2023-01-17T12:33:57.401Z,1.21
2023-01-17T12:34:58.327Z,1.56
2023-01-17T12:35:59.376Z,1.38
2023-01-17T12:37:00.356Z,1.71
2023-01-17T12:38:05.552Z,1.08
2023-01-17T12:39:02.491Z,0.98
2023-01-17T12:40:03.356Z,1.5
2023-01-17T12:41:04.344Z,1.28
2023-01-17T12:42:05.380Z,1.38
2023-01-17T12:43:06.400Z,0.46
2023-01-17T12:44:07.351Z,0.76
2023-01-17T12:45:08.391Z,1.51
2023-01-17T12:46:09.343Z,0.97
2023-01-17T12:47:10.336Z,1.51
2023-01-17T12:48:11.407Z,1.27
2023-01-17T12:49:12.375Z,1.01
2023-01-17T12:50:13.455Z,1.4
2023-01-17T12:51:14.410Z,0.5
2023-01-17T12:52:15.490Z,0.49
2023-01-17T12:53:16.391Z,1.19
2023-01-17T12:54:17.490Z,0.79
2023-01-17T12:55:18.452Z,1.2
2023-01-17T12:56:21.231Z,0.8
2023-01-17T12:57:23.096Z,1.35
2023-01-17T12:58:24.414Z,1.06
2023-01-17T12:59:25.398Z,1.59
2023-01-17T13:00:26.406Z,1.13
2023-01-17T13:01:27.454Z,0.9
2023-01-17T13:02:28.500Z,0.63
2023-01-17T13:03:32.015Z,0.33
2023-01-17T13:04:33.595Z,0.75
2023-01-17T13:05:34.355Z,1.35
2023-01-17T13:06:35.353Z,1.17
2023-01-17T13:07:36.415Z,0.76
2023-01-17T13:08:37.314Z,1.7
2023-01-17T13:09:38.411Z,0.8
2023-01-17T13:10:39.382Z,0.68
2023-01-17T13:11:40.323Z,0.59
2023-01-17T13:12:41.495Z,1.25
2023-01-17T13:13:42.492Z,0.86
2023-01-17T13:14:43.453Z,1.77
2023-01-17T13:15:44.415Z,1.63
2023-01-17T13:16:45.381Z,1.63
2023-01-17T13:17:46.586Z,0.48
2023-01-17T13:18:47.532Z,1.16
2023-01-17T13:19:48.486Z,1.21
2023-01-17T13:20:49.329Z,0.88
2023-01-17T13:21:50.456Z,1.18
2023-01-17T13:22:51.492Z,0.95
2023-01-17T13:23:52.517Z,1.03
2023-01-17T13:24:53.558Z,2.02
2023-01-17T13:25:54.452Z,1.15
2023-01-17T13:26:55.390Z,1.8
2023-01-17T13:27:56.436Z,1.71
2023-01-17T13:28:57.392Z,0.93
2023-01-17T13:29:58.392Z,1.26
2023-01-17T13:30:59.412Z,1.1
2023-01-17T13:32:00.406Z,0.86
2023-01-17T13:33:01.654Z,0.95
2023-01-17T13:34:02.410Z,0.78
2023-01-17T13:35:03.456Z,0.6
2023-01-17T13:36:04.551Z,0.93
2023-01-17T13:37:05.452Z,0.69
2023-01-17T13:38:06.430Z,1.46
2023-01-17T13:39:07.467Z,0.79
2023-01-17T13:40:08.433Z,0.97
2023-01-17T13:41:09.463Z,0.78
2023-01-17T13:42:10.400Z,0.71
2023-01-17T13:43:11.497Z,0.86
2023-01-17T13:44:12.394Z,1.61
2023-01-17T13:45:13.556Z,1.17
2023-01-17T13:46:14.650Z,0.71
2023-01-17T13:47:15.620Z,0.43
2023-01-17T13:48:16.455Z,0.43
2023-01-17T13:49:17.374Z,1.24
2023-01-17T13:50:18.366Z,0.92
2023-01-17T13:51:19.491Z,0.94
2023-01-17T13:52:20.451Z,1.23
2023-01-17T13:53:21.494Z,1.22
2023-01-17T13:54:22.459Z,0.35
2023-01-17T13:55:23.450Z,0.9